Time;durP1;ratioP1;P1;durP2;ratioP2;P2;SDS_P1;SDS_P2;PMS_P1;PMS_P2;Temp;Humidity;BMP_temperature;BMP_pressure;BME280_temperature;BME280_humidity;BME280_pressure;Samples;Min_cycle;Max_cycle;Signal;HPM_P1;HPM_P2
2022/06/23 00:01:33;;;;;;;1.05;0.73;;;15.30;70.60;;;;;;4849323;29;20081;-77
2022/06/23 00:04:01;;;;;;;0.95;0.90;;;15.30;70.90;;;;;;4843659;29;20061;-76
2022/06/23 00:06:52;;;;;;;2.38;1.40;;;15.30;70.90;;;;;;4852239;29;20053;-76
2022/06/23 00:09:32;;;;;;;1.48;1.17;;;15.30;71.20;;;;;;4851353;29;20410;-77
2022/06/23 00:12:18;;;;;;;2.63;1.08;;;15.30;71.30;;;;;;4862433;29;20493;-77
2022/06/23 00:14:48;;;;;;;1.60;1.00;;;15.30;71.20;;;;;;4862165;29;20545;-76
2022/06/23 00:17:39;;;;;;;1.55;1.10;;;15.20;71.30;;;;;;4867512;29;20600;-77
2022/06/23 00:20:34;;;;;;;2.05;1.17;;;15.10;71.50;;;;;;4867542;29;20391;-77
2022/06/23 00:23:11;;;;;;;1.92;1.25;;;15.10;71.60;;;;;;4850353;29;20065;-76
2022/06/23 00:26:06;;;;;;;1.50;1.20;;;15.00;71.70;;;;;;4849120;29;20074;-76
2022/06/23 00:28:41;;;;;;;2.40;1.40;;;15.00;71.90;;;;;;4860985;29;20057;-76
2022/06/23 00:31:30;;;;;;;4.40;1.55;;;14.90;72.10;;;;;;4862970;29;20061;-76
2022/06/23 00:34:01;;;;;;;5.43;1.92;;;14.80;72.50;;;;;;4854509;29;20049;-76
2022/06/23 00:36:40;;;;;;;3.50;1.80;;;14.80;72.60;;;;;;4857012;29;20068;-76
2022/06/23 00:39:49;;;;;;;6.57;2.20;;;14.70;72.80;;;;;;4860430;29;20065;-76
2022/06/23 00:42:37;;;;;;;5.45;2.20;;;14.70;73.30;;;;;;4847191;29;20065;-76
2022/06/23 00:45:11;;;;;;;5.25;1.88;;;14.60;73.50;;;;;;4860089;29;20053;-76
2022/06/23 00:47:45;;;;;;;8.30;1.90;;;14.50;73.60;;;;;;4860767;29;20530;-76
2022/06/23 00:50:18;;;;;;;;;;;14.50;74.00;;;;;;4859798;29;20064;-76
2022/06/23 00:52:57;;;;;;;1.88;1.70;;;14.40;74.00;;;;;;4856585;29;19929;-76
2022/06/23 00:55:48;;;;;;;9.52;2.60;;;14.50;74.00;;;;;;4852823;29;20061;-76
2022/06/23 00:58:24;;;;;;;6.93;2.38;;;14.40;74.30;;;;;;4848826;29;20058;-76
2022/06/23 01:01:00;;;;;;;3.83;2.20;;;14.30;74.70;;;;;;4856791;29;20498;-76
2022/06/23 01:03:37;;;;;;;4.32;2.25;;;14.30;74.80;;;;;;4849372;29;20050;-76
2022/06/23 01:06:13;;;;;;;3.78;2.05;;;14.20;75.00;;;;;;4860604;29;20052;-76
2022/06/23 01:08:52;;;;;;;3.30;2.00;;;14.20;75.30;;;;;;4860663;29;20050;-76
2022/06/23 01:11:33;;;;;;;3.05;2.25;;;14.10;75.70;;;;;;4846147;29;20046;-76
2022/06/23 01:14:06;;;;;;;5.80;2.70;;;14.10;75.80;;;;;;4859650;29;20076;-76
2022/06/23 01:16:48;;;;;;;4.53;2.30;;;14.00;76.00;;;;;;4854765;29;20050;-76
2022/06/23 01:19:35;;;;;;;3.15;2.00;;;13.90;76.30;;;;;;4874455;29;20049;-76
2022/06/23 01:22:07;;;;;;;5.18;3.00;;;13.80;76.60;;;;;;4855678;29;20057;-76
2022/06/23 01:25:02;;;;;;;13.90;4.60;;;13.80;76.60;;;;;;4858530;29;20523;-76
2022/06/23 01:27:52;;;;;;;11.38;4.03;;;13.80;77.10;;;;;;4844426;29;20432;-76
2022/06/23 01:30:21;;;;;;;7.22;3.50;;;13.80;77.20;;;;;;4860151;29;20061;-76
2022/06/23 01:33:04;;;;;;;6.80;2.22;;;13.80;77.20;;;;;;4847707;29;20057;-76
2022/06/23 01:35:40;;;;;;;6.80;2.60;;;13.80;77.50;;;;;;4847395;29;20068;-77
2022/06/23 01:38:25;;;;;;;9.77;2.97;;;13.70;77.50;;;;;;4854044;29;20368;-76
2022/06/23 01:41:04;;;;;;;9.73;2.92;;;13.60;77.70;;;;;;4845046;29;20069;-76
2022/06/23 01:43:43;;;;;;;8.68;3.63;;;13.60;77.90;;;;;;4859103;29;20041;-76
2022/06/23 01:46:24;;;;;;;6.05;3.47;;;13.50;78.00;;;;;;4848712;29;20064;-76
2022/06/23 01:49:10;;;;;;;8.02;2.95;;;13.40;78.20;;;;;;4856726;29;20057;-76
2022/06/23 01:51:38;;;;;;;4.82;2.47;;;13.30;78.50;;;;;;4843639;29;20061;-76
2022/06/23 01:54:26;;;;;;;4.05;2.58;;;13.30;78.60;;;;;;4857909;29;20049;-76
2022/06/23 01:57:09;;;;;;;5.55;2.22;;;13.30;79.00;;;;;;4858417;29;20056;-76
2022/06/23 01:59:39;;;;;;;7.80;2.97;;;13.30;79.00;;;;;;4846425;29;20069;-76
2022/06/23 02:02:10;;;;;;;12.05;3.45;;;13.30;79.10;;;;;;4855082;29;20050;-75
2022/06/23 02:05:11;;;;;;;3.20;2.70;;;13.30;79.10;;;;;;4856845;29;20058;-76
2022/06/23 02:07:38;;;;;;;7.72;3.15;;;13.30;79.40;;;;;;4845798;29;20508;-76
2022/06/23 02:10:24;;;;;;;4.60;3.00;;;13.20;79.30;;;;;;4857331;29;20202;-76
2022/06/23 02:12:57;;;;;;;6.85;3.08;;;13.20;79.70;;;;;;4856084;29;20054;-75
2022/06/23 02:15:58;;;;;;;5.85;3.33;;;13.10;79.70;;;;;;4856889;29;20404;-76
2022/06/23 02:18:34;;;;;;;4.60;3.30;;;13.10;79.90;;;;;;4857344;29;20046;-76
2022/06/23 02:21:19;;;;;;;5.75;3.47;;;13.00;79.90;;;;;;4859521;29;20057;-76
2022/06/23 02:24:01;;;;;;;6.53;3.53;;;13.00;80.10;;;;;;4853674;29;20393;-76
2022/06/23 02:26:58;;;;;;;4.95;3.28;;;12.90;80.30;;;;;;4849589;29;20484;-76
2022/06/23 02:29:28;;;;;;;8.87;3.93;;;12.90;80.40;;;;;;4858346;29;20068;-76
2022/06/23 02:32:04;;;;;;;9.65;3.75;;;12.80;80.40;;;;;;4852915;29;20267;-76
2022/06/23 02:34:50;;;;;;;9.75;4.32;;;12.80;80.70;;;;;;4859660;29;20076;-76
2022/06/23 02:37:46;;;;;;;5.10;4.20;;;12.80;80.80;;;;;;4848925;29;20480;-76
2022/06/23 02:40:22;;;;;;;7.15;3.60;;;12.80;81.00;;;;;;4857955;29;20065;-75
2022/06/23 02:42:55;;;;;;;4.72;2.53;;;12.80;81.00;;;;;;4844249;29;20054;-76
2022/06/23 02:45:39;;;;;;;5.15;2.47;;;12.80;81.00;;;;;;4844844;29;20262;-77
2022/06/23 02:48:33;;;;;;;2.25;2.05;;;12.70;81.20;;;;;;4858812;29;20058;-79
2022/06/23 02:51:22;;;;;;;4.00;2.45;;;12.70;81.20;;;;;;4858013;29;20523;-76
2022/06/23 02:54:08;;;;;;;2.58;2.38;;;12.70;81.20;;;;;;4842174;29;20057;-77
2022/06/23 02:57:03;;;;;;;4.40;3.55;;;12.70;81.50;;;;;;4852827;29;20053;-76
2022/06/23 03:00:18;;;;;;;16.27;5.10;;;12.70;81.50;;;;;;4850677;29;20045;-77
2022/06/23 03:03:08;;;;;;;10.63;4.13;;;12.60;81.60;;;;;;4859306;29;20060;-77
2022/06/23 03:05:44;;;;;;;10.32;3.88;;;12.60;81.60;;;;;;4857388;29;20041;-77
2022/06/23 03:08:32;;;;;;;6.75;4.05;;;12.50;81.60;;;;;;4858344;29;20057;-77
2022/06/23 03:11:04;;;;;;;9.38;4.32;;;12.50;81.70;;;;;;4856374;29;20057;-78
2022/06/23 03:13:45;;;;;;;10.68;4.45;;;12.50;81.90;;;;;;4846251;29;20045;-77
2022/06/23 03:16:36;;;;;;;9.52;4.43;;;12.50;82.10;;;;;;4850439;29;20512;-77
2022/06/23 03:19:12;;;;;;;7.07;3.72;;;12.40;82.20;;;;;;4857506;29;20065;-77
2022/06/23 03:21:44;;;;;;;4.93;3.90;;;12.40;82.30;;;;;;4872332;29;20052;-76
2022/06/23 03:24:31;;;;;;;10.05;3.63;;;12.30;82.30;;;;;;4858509;29;20049;-77
2022/06/23 03:27:04;;;;;;;6.57;3.40;;;12.30;82.40;;;;;;4858355;29;20056;-76
2022/06/23 03:29:40;;;;;;;8.82;3.83;;;12.30;82.50;;;;;;4857559;29;20049;-76
2022/06/23 03:32:51;;;;;;;6.35;4.35;;;12.30;82.70;;;;;;4851462;29;20065;-76
2022/06/23 03:35:33;;;;;;;6.95;4.10;;;12.20;82.80;;;;;;4812537;29;20069;-76
2022/06/23 03:38:13;;;;;;;7.20;4.53;;;12.20;82.80;;;;;;4862022;29;20546;-76
2022/06/23 03:43:51;;;;;;;6.82;4.20;;;12.20;83.10;;;;;;4850366;29;20046;-76
2022/06/23 03:46:31;;;;;;;6.70;4.18;;;12.10;83.10;;;;;;4860260;29;20511;-76
2022/06/23 03:49:08;;;;;;;6.97;4.30;;;12.10;83.20;;;;;;4860019;29;20049;-76
2022/06/23 03:51:40;;;;;;;5.40;4.43;;;12.10;83.30;;;;;;4856694;29;20053;-76
2022/06/23 03:54:24;;;;;;;6.57;4.65;;;12.10;83.40;;;;;;4858709;29;20056;-76
2022/06/23 03:57:14;;;;;;;6.07;4.85;;;12.00;83.50;;;;;;4860232;29;20053;-76
2022/06/23 03:59:59;;;;;;;8.00;4.70;;;12.00;83.60;;;;;;4861780;29;20061;-76
2022/06/23 04:02:34;;;;;;;10.57;4.97;;;12.00;83.60;;;;;;4849775;29;20053;-76
2022/06/23 04:05:17;;;;;;;11.27;4.57;;;12.00;83.70;;;;;;4859054;29;20373;-76
2022/06/23 04:07:49;;;;;;;12.15;5.20;;;12.00;83.90;;;;;;4859307;29;20435;-76
2022/06/23 04:10:30;;;;;;;16.13;6.15;;;12.00;83.90;;;;;;4850720;29;20061;-76
2022/06/23 04:13:34;;;;;;;8.82;5.15;;;12.00;84.00;;;;;;4858647;29;20159;-76
2022/06/23 04:16:08;;;;;;;10.02;5.57;;;12.00;84.00;;;;;;4857092;29;20049;-76
2022/06/23 04:18:46;;;;;;;8.90;4.88;;;12.00;84.10;;;;;;4863279;29;20060;-76
2022/06/23 04:21:26;;;;;;;9.43;5.10;;;12.00;84.10;;;;;;4845034;29;20061;-76
2022/06/23 04:23:58;;;;;;;8.70;4.57;;;12.10;84.10;;;;;;4861148;29;20045;-76
2022/06/23 04:26:31;;;;;;;7.85;4.90;;;12.10;84.10;;;;;;4860409;29;20116;-76
2022/06/23 04:29:23;;;;;;;7.07;4.40;;;12.20;84.10;;;;;;4846118;29;20491;-76
2022/06/23 04:31:55;;;;;;;8.02;4.93;;;12.20;84.20;;;;;;4852871;29;20065;-76
2022/06/23 04:34:31;;;;;;;8.63;4.47;;;12.30;84.10;;;;;;4855222;29;20525;-76
2022/06/23 04:36:59;;;;;;;7.90;4.78;;;12.30;84.10;;;;;;4854792;29;20054;-76
2022/06/23 04:39:36;;;;;;;6.72;4.50;;;12.30;84.00;;;;;;4863373;29;20049;-76
2022/06/23 04:42:16;;;;;;;7.00;4.28;;;12.40;84.10;;;;;;4853290;29;20053;-76
2022/06/23 04:44:46;;;;;;;6.30;4.25;;;12.50;84.10;;;;;;4871181;29;20050;-76
2022/06/23 04:47:17;;;;;;;9.45;5.25;;;12.60;84.00;;;;;;4863743;29;20054;-75
2022/06/23 04:49:57;;;;;;;9.82;5.70;;;12.70;83.80;;;;;;4850179;29;20058;-76
2022/06/23 04:52:32;;;;;;;9.35;5.03;;;12.70;83.70;;;;;;4850155;29;20064;-76
2022/06/23 04:55:10;;;;;;;10.40;4.60;;;12.80;83.70;;;;;;4864236;29;20392;-76
2022/06/23 04:57:46;;;;;;;9.68;4.30;;;12.80;83.60;;;;;;4859829;29;20064;-76
2022/06/23 05:00:29;;;;;;;9.15;4.93;;;12.90;83.50;;;;;;4851087;29;20060;-76
2022/06/23 05:03:04;;;;;;;7.63;4.13;;;13.00;83.40;;;;;;4860482;29;20168;-76
2022/06/23 05:05:35;;;;;;;6.93;3.70;;;13.10;83.40;;;;;;4862311;29;20048;-76
2022/06/23 05:08:26;;;;;;;5.20;3.53;;;13.10;83.40;;;;;;4859533;29;20057;-76
2022/06/23 05:10:59;;;;;;;7.82;3.55;;;13.30;83.30;;;;;;4867999;29;20396;-76
2022/06/23 05:13:40;;;;;;;5.45;3.70;;;13.30;83.10;;;;;;4860256;29;20049;-76
2022/06/23 05:16:12;;;;;;;6.28;3.28;;;13.50;83.00;;;;;;4858761;29;20057;-77
2022/06/23 05:18:45;;;;;;;6.32;3.38;;;13.70;82.70;;;;;;4858639;29;20064;-76
2022/06/23 05:21:17;;;;;;;7.63;3.33;;;13.80;82.50;;;;;;4859533;29;20046;-76
2022/06/23 05:24:06;;;;;;;8.75;3.63;;;13.80;82.40;;;;;;4856722;29;20061;-76
2022/06/23 05:26:52;;;;;;;8.43;4.30;;;13.90;82.30;;;;;;4847014;29;20045;-76
2022/06/23 05:29:25;;;;;;;8.25;4.90;;;14.00;82.10;;;;;;4857908;29;20393;-77
2022/06/23 05:31:58;;;;;;;10.13;4.80;;;14.10;82.00;;;;;;4859029;29;20053;-76
2022/06/23 05:34:33;;;;;;;9.30;4.95;;;14.20;81.90;;;;;;4859335;29;20046;-77
2022/06/23 05:37:19;;;;;;;7.63;4.30;;;14.30;81.80;;;;;;4859124;29;20045;-76
2022/06/23 05:40:10;;;;;;;4.53;4.10;;;14.30;81.60;;;;;;4858924;29;20050;-76
2022/06/23 05:42:42;;;;;;;4.78;3.70;;;14.40;81.50;;;;;;4847863;29;20069;-76
2022/06/23 05:45:16;;;;;;;8.32;3.90;;;14.60;81.30;;;;;;4857409;29;20045;-76
2022/06/23 05:47:45;;;;;;;4.78;3.65;;;14.70;81.10;;;;;;4857552;29;20415;-75
2022/06/23 05:50:21;;;;;;;6.05;3.58;;;14.80;80.90;;;;;;4859920;29;20045;-75
2022/06/23 05:52:59;;;;;;;6.28;3.65;;;14.90;80.60;;;;;;4857642;29;20061;-76
2022/06/23 05:55:44;;;;;;;5.03;3.40;;;15.00;80.40;;;;;;4859643;29;20041;-76
2022/06/23 05:58:19;;;;;;;3.55;3.20;;;15.10;80.00;;;;;;4841389;29;20432;-75
2022/06/23 06:01:10;;;;;;;4.03;3.38;;;15.30;79.70;;;;;;4847406;29;20050;-77
2022/06/23 06:03:42;;;;;;;5.55;3.20;;;15.40;79.30;;;;;;4858963;29;20037;-75
2022/06/23 06:06:11;;;;;;;9.27;3.42;;;15.50;79.00;;;;;;4859816;29;20057;-75
2022/06/23 06:11:33;;;;;;;4.55;3.78;;;15.80;78.50;;;;;;4858218;29;20045;-77
2022/06/23 06:14:03;;;;;;;4.38;3.30;;;15.90;78.10;;;;;;4859701;29;20049;-76
2022/06/23 06:16:32;;;;;;;5.10;3.55;;;16.00;77.80;;;;;;4857865;29;20042;-77
2022/06/23 06:19:00;;;;;;;6.88;3.60;;;16.10;77.40;;;;;;4863039;29;20060;-76
2022/06/23 06:21:28;;;;;;;4.10;3.55;;;16.30;77.00;;;;;;4860296;29;20522;-76
2022/06/23 06:24:14;;;;;;;6.95;3.38;;;16.40;76.70;;;;;;4857298;29;20491;-76
2022/06/23 06:26:46;;;;;;;4.90;3.42;;;16.60;76.40;;;;;;4859813;29;20057;-76
2022/06/23 06:29:22;;;;;;;4.03;2.97;;;16.70;76.20;;;;;;4859487;29;20399;-76
2022/06/23 06:32:08;;;;;;;10.90;3.85;;;16.90;76.00;;;;;;4855065;29;20053;-74
2022/06/23 06:34:42;;;;;;;6.53;4.18;;;17.10;75.60;;;;;;4857588;29;20045;-75
2022/06/23 06:37:13;;;;;;;5.05;4.32;;;17.30;75.30;;;;;;4859002;29;20483;-76
2022/06/23 06:39:46;;;;;;;7.63;4.15;;;17.30;74.90;;;;;;4858227;29;20068;-76
2022/06/23 06:42:24;;;;;;;6.10;4.10;;;17.50;74.60;;;;;;4851588;29;20054;-76
2022/06/23 06:45:03;;;;;;;6.90;3.85;;;17.60;74.30;;;;;;4856849;29;20050;-76
2022/06/23 06:47:35;;;;;;;8.65;3.85;;;17.80;74.00;;;;;;4868022;29;20167;-76
2022/06/23 06:50:41;;;;;;;10.07;3.88;;;17.80;73.60;;;;;;4858313;29;20049;-75
2022/06/23 06:53:31;;;;;;;7.03;4.20;;;17.90;73.30;;;;;;4857784;29;20050;-75
2022/06/23 06:56:17;;;;;;;8.93;3.88;;;18.00;73.10;;;;;;4858149;29;20065;-75
2022/06/23 06:59:08;;;;;;;6.45;3.70;;;18.10;72.90;;;;;;4857330;29;20069;-76
2022/06/23 07:01:39;;;;;;;7.00;4.13;;;18.20;72.70;;;;;;4848454;29;20057;-76
2022/06/23 07:04:13;;;;;;;4.72;3.88;;;18.20;72.60;;;;;;4857007;29;20041;-75
2022/06/23 07:06:49;;;;;;;7.85;4.13;;;18.20;72.40;;;;;;4858477;29;20050;-76
2022/06/23 07:09:35;;;;;;;4.90;4.05;;;18.20;72.30;;;;;;4860285;29;20050;-75
2022/06/23 07:12:11;;;;;;;5.88;4.25;;;18.30;72.20;;;;;;4854917;29;20041;-76
2022/06/23 07:15:02;;;;;;;5.88;3.80;;;18.40;72.10;;;;;;4860891;29;20056;-76
2022/06/23 07:17:45;;;;;;;6.00;4.30;;;18.40;71.90;;;;;;4847053;29;20050;-76
2022/06/23 07:20:19;;;;;;;6.40;4.40;;;18.60;71.80;;;;;;4855625;29;20041;-75
2022/06/23 07:23:04;;;;;;;7.25;4.13;;;18.70;71.60;;;;;;4836607;29;20048;-75
2022/06/23 07:25:45;;;;;;;4.70;4.20;;;18.80;71.30;;;;;;4853691;29;20052;-75
2022/06/23 07:28:20;;;;;;;4.78;4.25;;;18.80;71.10;;;;;;4855458;29;20062;-75
2022/06/23 07:30:55;;;;;;;7.10;4.22;;;18.90;71.00;;;;;;4851050;29;20057;-76
2022/06/23 07:33:34;;;;;;;7.65;4.55;;;19.00;70.90;;;;;;4860896;29;20060;-75
2022/06/23 07:36:13;;;;;;;7.18;4.53;;;19.10;70.60;;;;;;4858165;29;20496;-75
2022/06/23 07:38:49;;;;;;;5.53;3.80;;;19.20;70.10;;;;;;4859738;29;20053;-75
2022/06/23 07:41:42;;;;;;;8.30;4.40;;;19.30;69.90;;;;;;4859785;29;20053;-75
2022/06/23 07:44:42;;;;;;;6.53;4.53;;;19.30;69.70;;;;;;4862079;29;20064;-74
2022/06/23 07:47:10;;;;;;;5.97;3.75;;;19.40;69.50;;;;;;4861400;29;20057;-75
2022/06/23 07:49:38;;;;;;;6.45;3.95;;;19.60;69.40;;;;;;4861604;29;20415;-74
2022/06/23 07:52:06;;;;;;;6.25;4.25;;;19.80;69.20;;;;;;4860663;29;20094;-75
2022/06/23 07:54:36;;;;;;;9.77;4.60;;;19.80;68.80;;;;;;4861246;29;20400;-75
2022/06/23 07:57:04;;;;;;;8.93;5.00;;;20.00;68.40;;;;;;4862152;29;20054;-75
2022/06/23 07:59:58;;;;;;;7.03;4.70;;;20.10;68.00;;;;;;4861949;29;20069;-75
2022/06/23 08:02:31;;;;;;;7.45;4.28;;;20.20;67.70;;;;;;4860795;29;20041;-75
2022/06/23 08:05:03;;;;;;;10.25;4.43;;;20.20;67.40;;;;;;4860188;29;20057;-76
2022/06/23 08:07:32;;;;;;;5.75;4.30;;;20.30;67.20;;;;;;4861910;29;20404;-75
2022/06/23 08:10:26;;;;;;;4.63;4.00;;;20.30;67.00;;;;;;4862044;29;20049;-76
2022/06/23 08:13:12;;;;;;;8.43;4.28;;;20.40;67.00;;;;;;4860585;29;20045;-76
2022/06/23 08:18:51;;;;;;;5.10;3.90;;;20.70;66.50;;;;;;4843569;29;20065;-76
2022/06/23 08:21:22;;;;;;;;;;;20.80;66.20;;;;;;4861686;29;20054;-76
2022/06/23 08:23:56;;;;;;;8.00;3.75;;;20.90;65.60;;;;;;4864502;29;19924;-76
2022/06/23 08:26:26;;;;;;;9.57;4.00;;;21.00;65.50;;;;;;4860806;29;20057;-76
2022/06/23 08:28:57;;;;;;;5.07;3.65;;;21.10;65.20;;;;;;4861878;29;20050;-76
2022/06/23 08:31:26;;;;;;;6.20;3.53;;;21.20;64.10;;;;;;4860431;29;20057;-76
2022/06/23 08:34:14;;;;;;;6.80;4.38;;;21.30;64.00;;;;;;4859559;29;20061;-76
2022/06/23 08:36:47;;;;;;;5.55;3.70;;;21.30;63.20;;;;;;4861254;29;20061;-74
2022/06/23 08:39:17;;;;;;;5.95;3.72;;;21.30;63.30;;;;;;4861362;29;20056;-74
2022/06/23 08:41:53;;;;;;;7.80;3.95;;;21.40;63.20;;;;;;4860958;29;20059;-74
2022/06/23 08:44:53;;;;;;;9.93;3.70;;;21.60;62.70;;;;;;4861463;29;20057;-75
2022/06/23 08:47:43;;;;;;;7.05;3.42;;;21.70;62.60;;;;;;4860124;29;20049;-75
2022/06/23 08:50:32;;;;;;;11.35;7.32;;;21.80;62.50;;;;;;4859872;29;20080;-75
2022/06/23 08:53:26;;;;;;;7.68;4.40;;;22.00;62.40;;;;;;4844918;29;20499;-75
2022/06/23 08:56:09;;;;;;;14.48;8.10;;;22.30;62.00;;;;;;4846468;29;20066;-75
2022/06/23 08:59:08;;;;;;;13.80;7.80;;;22.70;61.80;;;;;;4851143;29;20507;-75
2022/06/23 09:01:55;;;;;;;4.85;3.20;;;23.10;61.20;;;;;;4860181;29;20049;-76
2022/06/23 09:04:41;;;;;;;8.82;5.53;;;23.50;60.20;;;;;;4860107;29;20053;-75
2022/06/23 09:07:22;;;;;;;4.28;3.10;;;23.90;58.50;;;;;;4862368;29;20058;-75
2022/06/23 09:09:59;;;;;;;10.90;3.20;;;24.10;57.00;;;;;;4864345;29;20045;-75
2022/06/23 09:12:44;;;;;;;5.47;2.67;;;24.10;56.50;;;;;;4862989;29;20068;-74
2022/06/23 09:15:24;;;;;;;4.95;2.70;;;24.10;55.80;;;;;;4861038;29;20065;-75
2022/06/23 09:18:33;;;;;;;6.38;3.30;;;24.10;56.10;;;;;;4861690;29;20042;-76
2022/06/23 09:21:23;;;;;;;5.35;3.03;;;24.20;55.90;;;;;;4856722;29;20054;-75
2022/06/23 09:24:21;;;;;;;5.72;3.50;;;24.40;55.20;;;;;;4857081;29;20048;-76
2022/06/23 09:27:26;;;;;;;9.27;2.95;;;24.50;54.90;;;;;;4861494;29;20057;-76
2022/06/23 09:30:11;;;;;;;10.70;2.70;;;24.60;54.70;;;;;;4860700;29;20068;-76
2022/06/23 09:32:52;;;;;;;9.27;3.00;;;24.60;54.10;;;;;;4859051;29;20049;-76
2022/06/23 09:35:26;;;;;;;4.63;2.80;;;24.70;53.40;;;;;;4856415;29;20049;-76
2022/06/23 09:38:14;;;;;;;7.05;2.70;;;24.60;52.80;;;;;;4840497;29;20057;-76
2022/06/23 09:40:56;;;;;;;6.82;2.40;;;24.50;53.10;;;;;;4860651;29;20423;-76
2022/06/23 09:43:23;;;;;;;5.72;2.70;;;24.50;52.40;;;;;;4859994;29;20094;-76
2022/06/23 09:46:18;;;;;;;5.72;2.20;;;24.50;51.20;;;;;;4850488;29;21430;-76
2022/06/23 09:49:16;;;;;;;1.73;1.63;;;24.40;51.60;;;;;;4860855;29;20053;-76
2022/06/23 09:52:08;;;;;;;4.88;2.15;;;24.40;52.20;;;;;;4857365;29;20054;-76
2022/06/23 09:54:45;;;;;;;5.70;2.00;;;24.60;50.50;;;;;;4851004;29;20632;-76
2022/06/23 09:57:54;;;;;;;7.18;2.38;;;24.50;50.50;;;;;;4856653;29;20050;-76
2022/06/23 10:00:36;;;;;;;3.53;1.92;;;24.50;49.00;;;;;;4802004;29;20420;-76
2022/06/23 10:03:31;;;;;;;5.68;2.17;;;24.50;49.90;;;;;;4813827;29;20058;-76
2022/06/23 10:06:40;;;;;;;6.88;1.75;;;24.70;50.00;;;;;;4803221;29;20059;-75
2022/06/23 10:09:45;;;;;;;3.45;1.80;;;24.90;49.60;;;;;;4816587;29;20710;-76
2022/06/23 10:12:26;;;;;;;3.53;1.80;;;25.00;49.90;;;;;;4815101;29;20055;-76
2022/06/23 10:15:02;;;;;;;4.15;2.00;;;25.30;49.30;;;;;;4808088;29;20047;-76
2022/06/23 10:17:48;;;;;;;9.23;2.20;;;25.40;48.30;;;;;;4805582;29;20792;-76
2022/06/23 10:20:22;;;;;;;4.65;1.80;;;25.60;47.50;;;;;;4817738;29;20065;-76
2022/06/23 10:23:03;;;;;;;7.00;2.00;;;25.70;47.50;;;;;;4821817;29;20062;-77
2022/06/23 10:25:33;;;;;;;4.10;1.70;;;25.80;47.20;;;;;;4814768;29;20062;-76
2022/06/23 10:28:32;;;;;;;8.65;1.80;;;25.80;45.50;;;;;;4814701;29;20055;-76
2022/06/23 10:31:18;;;;;;;5.90;1.88;;;25.80;45.40;;;;;;4778341;29;20108;-76
2022/06/23 10:34:06;;;;;;;4.97;1.88;;;25.90;45.80;;;;;;4812612;29;20046;-76
2022/06/23 10:36:42;;;;;;;5.35;1.60;;;26.00;45.60;;;;;;4822676;29;20049;-76
2022/06/23 10:39:31;;;;;;;7.03;2.20;;;26.20;45.20;;;;;;4856543;29;20057;-76
2022/06/23 10:42:07;;;;;;;7.00;2.15;;;26.30;44.00;;;;;;4862019;29;20068;-76
2022/06/23 10:44:49;;;;;;;5.10;1.80;;;26.30;43.60;;;;;;4862170;29;20045;-75
2022/06/23 10:47:38;;;;;;;7.30;1.80;;;26.20;44.40;;;;;;4861878;29;20045;-75
2022/06/23 10:50:45;;;;;;;6.10;2.00;;;26.30;44.50;;;;;;4848336;29;20116;-75
2022/06/23 10:53:52;;;;;;;3.88;1.90;;;26.50;43.60;;;;;;4857800;29;20052;-75
2022/06/23 10:56:37;;;;;;;6.78;1.83;;;26.70;43.70;;;;;;4863213;29;20487;-75
2022/06/23 10:59:08;;;;;;;3.95;1.80;;;26.90;44.10;;;;;;4863204;29;20411;-75
2022/06/23 11:02:04;;;;;;;4.00;1.70;;;27.10;43.20;;;;;;4863310;29;20081;-76
2022/06/23 11:04:50;;;;;;;3.60;1.98;;;27.30;42.60;;;;;;4861871;29;20061;-75
2022/06/23 11:08:04;;;;;;;4.95;1.63;;;27.60;42.90;;;;;;4863347;29;20056;-75
2022/06/23 11:10:58;;;;;;;4.60;1.92;;;27.80;42.10;;;;;;4863293;29;20050;-75
2022/06/23 11:13:51;;;;;;;4.88;2.10;;;27.90;41.50;;;;;;4851439;29;20047;-76
2022/06/23 11:16:35;;;;;;;3.80;2.10;;;27.80;41.70;;;;;;4844576;29;20061;-76
2022/06/23 11:19:10;;;;;;;14.05;2.42;;;27.80;40.50;;;;;;4843506;29;20050;-76
2022/06/23 11:22:15;;;;;;;10.75;2.00;;;27.80;40.90;;;;;;4844686;29;20050;-76
2022/06/23 11:25:11;;;;;;;7.47;2.05;;;28.00;41.20;;;;;;4844490;29;20065;-76
2022/06/23 11:28:00;;;;;;;8.98;1.80;;;28.30;40.50;;;;;;4837044;29;20532;-77
2022/06/23 11:30:32;;;;;;;4.88;1.88;;;28.50;39.30;;;;;;4843371;29;20061;-75
2022/06/23 11:33:03;;;;;;;3.38;1.92;;;28.60;39.30;;;;;;4844410;29;20052;-75
2022/06/23 11:35:56;;;;;;;3.55;1.60;;;28.80;39.70;;;;;;4844244;29;20057;-75
2022/06/23 11:38:36;;;;;;;;;;;28.80;39.00;;;;;;4840222;29;20058;-74
2022/06/23 11:41:19;;;;;;;6.63;1.88;;;28.50;39.70;;;;;;4861805;29;20374;-75
2022/06/23 11:44:03;;;;;;;4.32;1.58;;;28.30;40.30;;;;;;4861510;29;20057;-75
2022/06/23 11:46:38;;;;;;;4.65;1.80;;;28.40;40.50;;;;;;4862345;29;20057;-75
2022/06/23 11:49:34;;;;;;;5.05;1.80;;;28.50;39.70;;;;;;4862442;29;20060;-74
2022/06/23 11:52:22;;;;;;;4.75;1.75;;;28.30;39.40;;;;;;4861393;29;20045;-74
2022/06/23 11:55:07;;;;;;;7.72;1.65;;;28.10;39.80;;;;;;4862366;29;20443;-74
2022/06/23 11:58:13;;;;;;;8.82;2.50;;;28.30;39.40;;;;;;4861991;29;20049;-74
2022/06/23 12:00:57;;;;;;;3.58;1.60;;;28.80;38.60;;;;;;4861055;29;20064;-75
2022/06/23 12:03:47;;;;;;;5.03;1.60;;;29.00;37.50;;;;;;4862298;29;20396;-75
2022/06/23 12:06:49;;;;;;;2.83;1.50;;;29.30;36.50;;;;;;4862008;29;20050;-75
2022/06/23 12:09:28;;;;;;;6.82;1.50;;;29.70;36.50;;;;;;4861903;29;20049;-75
2022/06/23 12:11:59;;;;;;;5.95;1.38;;;29.90;35.70;;;;;;4843813;29;20057;-75
2022/06/23 12:14:27;;;;;;;6.25;1.55;;;29.70;35.60;;;;;;4860231;29;20508;-75
2022/06/23 12:17:02;;;;;;;4.35;1.67;;;29.40;35.80;;;;;;4860269;29;20061;-74
2022/06/23 12:19:56;;;;;;;3.95;1.40;;;29.30;36.10;;;;;;4861291;29;20062;-75
2022/06/23 12:22:35;;;;;;;4.20;1.50;;;29.30;35.90;;;;;;4825502;29;20476;-75
2022/06/23 12:25:28;;;;;;;7.35;1.50;;;29.70;35.80;;;;;;4861668;29;20061;-75
2022/06/23 12:28:14;;;;;;;5.50;1.33;;;29.80;35.70;;;;;;4863646;29;20385;-75
2022/06/23 12:31:19;;;;;;;5.13;1.70;;;29.90;35.90;;;;;;4861762;29;20053;-75
2022/06/23 12:34:00;;;;;;;2.88;1.30;;;30.00;35.70;;;;;;4861474;29;20056;-75
2022/06/23 12:36:39;;;;;;;3.90;1.67;;;30.20;35.70;;;;;;4858992;29;20053;-75
2022/06/23 12:39:14;;;;;;;2.70;1.40;;;30.40;34.80;;;;;;4856992;29;20057;-74
2022/06/23 12:41:54;;;;;;;5.63;1.70;;;30.40;35.30;;;;;;4843210;29;20064;-74
2022/06/23 12:45:02;;;;;;;6.45;1.67;;;30.40;35.20;;;;;;4849345;29;20524;-74
2022/06/23 12:48:02;;;;;;;7.53;1.70;;;30.50;35.00;;;;;;4860180;29;20054;-75
2022/06/23 12:50:45;;;;;;;5.20;1.40;;;30.80;34.80;;;;;;4859905;29;20382;-75
2022/06/23 12:53:26;;;;;;;4.63;1.48;;;31.20;34.80;;;;;;4860134;29;20509;-75
2022/06/23 12:56:14;;;;;;;4.82;1.50;;;31.70;33.50;;;;;;4851452;29;20061;-75
2022/06/23 12:58:50;;;;;;;3.08;1.45;;;32.00;31.70;;;;;;4860568;29;20056;-75
2022/06/23 13:01:29;;;;;;;3.45;1.60;;;31.80;32.70;;;;;;4842542;29;20045;-75
2022/06/23 13:04:03;;;;;;;2.75;1.40;;;31.50;33.50;;;;;;4839454;29;20057;-75
2022/06/23 13:06:44;;;;;;;5.57;1.50;;;31.10;34.10;;;;;;4845597;29;20057;-75
2022/06/23 13:09:39;;;;;;;5.05;1.52;;;30.80;34.40;;;;;;4852977;29;20542;-75
2022/06/23 13:12:48;;;;;;;6.65;1.80;;;30.40;34.60;;;;;;4854637;29;20399;-76
2022/06/23 13:15:39;;;;;;;5.53;1.60;;;30.10;35.30;;;;;;4850530;29;20060;-76
2022/06/23 13:18:31;;;;;;;3.55;1.60;;;30.20;35.00;;;;;;4853536;29;20041;-76
2022/06/23 13:21:07;;;;;;;4.70;1.70;;;30.30;34.80;;;;;;4851322;29;20053;-75
2022/06/23 13:23:39;;;;;;;5.20;1.45;;;30.40;34.80;;;;;;4851912;29;20057;-76
2022/06/23 13:26:21;;;;;;;5.85;1.48;;;30.50;34.80;;;;;;4855376;29;20495;-76
2022/06/23 13:28:59;;;;;;;5.57;1.30;;;30.50;34.40;;;;;;4850253;29;20051;-76
2022/06/23 13:31:54;;;;;;;2.40;1.40;;;30.30;34.10;;;;;;4853618;29;20061;-76
2022/06/23 13:34:28;;;;;;;5.85;1.67;;;30.10;34.20;;;;;;4858130;29;20329;-75
2022/06/23 13:37:17;;;;;;;5.15;1.67;;;29.80;34.80;;;;;;4862717;29;20384;-75
2022/06/23 13:39:51;;;;;;;4.57;1.70;;;29.40;35.70;;;;;;4862356;29;20061;-75
2022/06/23 13:42:21;;;;;;;4.15;1.50;;;29.10;36.30;;;;;;4848872;29;20495;-76
2022/06/23 13:44:49;;;;;;;2.67;1.40;;;28.80;37.00;;;;;;4856127;29;20491;-74
2022/06/23 13:47:37;;;;;;;4.80;1.70;;;28.40;37.60;;;;;;4859256;29;20053;-76
2022/06/23 13:50:15;;;;;;;2.78;1.20;;;28.10;38.10;;;;;;4857187;29;20049;-75
2022/06/23 13:52:56;;;;;;;5.72;1.80;;;27.80;38.50;;;;;;4857948;29;20049;-74
2022/06/23 13:55:53;;;;;;;3.47;1.38;;;27.60;39.10;;;;;;4846768;29;20050;-75
2022/06/23 13:58:53;;;;;;;2.47;1.40;;;27.60;39.40;;;;;;4858157;29;20056;-75
2022/06/23 14:01:50;;;;;;;5.13;1.30;;;27.50;39.50;;;;;;4857271;29;20041;-75
2022/06/23 14:04:26;;;;;;;2.28;1.00;;;27.50;39.70;;;;;;4858002;29;20064;-75
2022/06/23 14:07:07;;;;;;;2.15;1.13;;;27.30;39.20;;;;;;4864233;29;20050;-76
2022/06/23 14:09:58;;;;;;;2.65;1.00;;;27.10;39.20;;;;;;4840979;29;20046;-75
2022/06/23 14:12:50;;;;;;;1.45;0.82;;;26.80;39.50;;;;;;4840841;29;20046;-75
2022/06/23 14:15:33;;;;;;;2.70;0.98;;;26.60;40.00;;;;;;4843527;29;20073;-77